Lebam, WA

7:06 AM PDT on June 30, 2015 (GMT -0700)
Menlo | | Change Station
CLOSE
Current Station
Personal Weather Station
Location: Raymond, WA
Elevation: 10 ft
Nearby Weather Stations

Elev 10 ft 46.66 °N, 123.67 °W | Updated 37 seconds ago

Overcast
Overcast
58.6 °F
Feels Like 58.6 °F
N
2.7
Wind Variable Wind from West

Today
High -- | Low -- °F
--% Chance of Precip.
Yesterday
High -- | Low -- °F
Precip. -- in
5:24 AM 9:11 PM
Waxing Gibbous, 97% visible
Pressure 30.10 in
Visibility 6.0 miles
Clouds Overcast 1300 ft
Dew Point 58 °F
Humidity 98%
Rainfall in
Snow Depth Not available.
UV 0 out of 12
Pollen 6.90 out of 12
Air Quality Not available.
Flu Activity Sporadic
METAR KCLS 300915Z AUTO 00000KT 6SM BR OVC013 16/15 A3010 RMK AO2

More Conditions Fewer Conditions

Pressure 30.10 in
Visibility 6.0 miles
Clouds Overcast 1300 ft
Dew Point 58 °F
Humidity 98%
Rainfall in
Snow Depth Not available.
UV 0 out of 12
Pollen 6.90 out of 12
Air Quality Not available.
Flu Activity Sporadic
METAR KCLS 300915Z AUTO 00000KT 6SM BR OVC013 16/15 A3010 RMK AO2

More Conditions Fewer Conditions

10-Day Weather Forecast

×

Almanac

Astronomy

Jun. 30, 2015 Rise Set
Actual Time
Civil Twilight
Nautical Twilight
Astronomical Twilight
Moon
Length of Visible Light
Length of Day
Tomorrow will be .
, % of the Moon is Illuminated

Today's Extremes

State Highs State Lows

Community

WunderPhotos

Upload Photos

1,834,002 photos uploaded!

WunderBlogs® & News

Nearby

Air Quality

  Air Quality AQ Index Pollutant
Not available.

Snow Depth

Station Depth Elevation

Earthquake Activity

City Distance Mag. Time & Date
Minimum magnitude displayed is 2.5.

Coastal Water Temperatures

Place Temperature

Stations

Nearby Weather Stations

Station Location Temp. Windchill Dew Point Humidity Wind Precip. Elev Updated Type